createdAt,value
2017-11-24T00:00:29.019Z,2.73
2017-11-24T00:03:02.812Z,3.00
2017-11-24T00:05:36.947Z,4.10
2017-11-24T00:08:11.244Z,2.83
2017-11-24T00:10:45.114Z,2.63
2017-11-24T00:13:18.817Z,2.20
2017-11-24T00:15:52.491Z,2.80
2017-11-24T00:18:27.088Z,3.07
2017-11-24T00:21:01.036Z,2.93
2017-11-24T00:23:35.553Z,3.07
2017-11-24T00:26:09.819Z,2.67
2017-11-24T00:28:43.717Z,2.47
2017-11-24T00:31:17.742Z,2.03
2017-11-24T00:33:51.539Z,2.83
2017-11-24T00:36:25.613Z,2.50
2017-11-24T00:39:00.270Z,2.47
2017-11-24T00:41:34.607Z,2.43
2017-11-24T00:44:08.562Z,2.70
2017-11-24T00:46:42.455Z,2.87
2017-11-24T00:49:16.562Z,2.63
2017-11-24T00:51:50.559Z,2.40
2017-11-24T00:54:24.507Z,2.57
2017-11-24T00:56:58.365Z,2.50
2017-11-24T00:59:32.146Z,2.70
2017-11-24T01:02:06.677Z,2.30
2017-11-24T01:04:41.085Z,2.23
2017-11-24T01:07:16.206Z,3.00
2017-11-24T01:09:50.341Z,2.97
2017-11-24T01:12:24.913Z,2.50
2017-11-24T01:14:58.774Z,2.80
2017-11-24T01:17:33.152Z,2.70
2017-11-24T01:20:07.612Z,2.73
2017-11-24T01:22:42.413Z,2.30
2017-11-24T01:25:17.352Z,2.87
2017-11-24T01:27:51.560Z,3.40
2017-11-24T01:30:26.814Z,2.83
2017-11-24T01:33:02.523Z,2.50
2017-11-24T01:35:36.443Z,2.70
2017-11-24T01:38:10.381Z,2.33
2017-11-24T01:40:44.235Z,2.80
2017-11-24T01:43:18.898Z,2.53
2017-11-24T01:45:53.246Z,2.53
2017-11-24T01:48:27.317Z,2.27
2017-11-24T01:51:01.253Z,2.93
2017-11-24T01:53:35.575Z,2.13
2017-11-24T01:56:09.532Z,2.20
2017-11-24T01:58:43.254Z,2.13
2017-11-24T02:01:17.765Z,2.60
2017-11-24T02:03:52.320Z,2.57
2017-11-24T02:06:26.499Z,2.53
2017-11-24T02:09:01.146Z,2.70
2017-11-24T02:11:35.325Z,2.40
2017-11-24T02:14:08.965Z,2.50
2017-11-24T02:16:42.814Z,2.33
2017-11-24T02:19:17.106Z,2.60
2017-11-24T02:21:51.037Z,2.40
2017-11-24T02:24:25.164Z,2.83
2017-11-24T02:26:59.515Z,2.90
2017-11-24T02:29:33.207Z,2.90
2017-11-24T02:32:06.847Z,3.20
2017-11-24T02:34:41.339Z,3.20
2017-11-24T02:37:15.295Z,2.50
2017-11-24T02:39:49.314Z,3.13
2017-11-24T02:42:22.927Z,2.80
2017-11-24T02:44:57.232Z,3.23
2017-11-24T02:47:32.356Z,3.17
2017-11-24T02:50:06.400Z,3.30
2017-11-24T02:52:40.281Z,2.73
2017-11-24T02:55:13.849Z,2.80
2017-11-24T02:57:48.495Z,2.90
2017-11-24T03:03:03.212Z,2.80
2017-11-24T03:05:37.177Z,3.33
2017-11-24T03:08:11.580Z,15.50
2017-11-24T03:10:45.258Z,16.97
2017-11-24T03:13:19.741Z,6.63
2017-11-24T03:15:54.468Z,3.53
2017-11-24T03:18:28.398Z,3.97
2017-11-24T03:21:02.284Z,3.03
2017-11-24T03:23:36.063Z,3.30
2017-11-24T03:26:10.383Z,2.90
2017-11-24T03:28:45.521Z,2.90
2017-11-24T03:31:19.650Z,2.43
2017-11-24T03:33:53.561Z,2.33
2017-11-24T03:36:27.374Z,3.27
2017-11-24T03:39:01.183Z,3.07
2017-11-24T03:41:35.066Z,2.30
2017-11-24T03:44:09.132Z,2.37
2017-11-24T03:46:42.874Z,2.70
2017-11-24T03:49:17.411Z,2.87
2017-11-24T03:51:51.285Z,2.90
2017-11-24T03:54:24.935Z,2.60
2017-11-24T03:56:59.404Z,3.07
2017-11-24T03:59:33.330Z,2.20
2017-11-24T04:02:08.651Z,2.67
2017-11-24T04:04:42.805Z,3.77
2017-11-24T04:07:16.542Z,3.50
2017-11-24T04:09:50.419Z,3.30
2017-11-24T04:12:25.055Z,2.67
2017-11-24T04:14:58.880Z,2.90
2017-11-24T04:17:32.630Z,3.83
2017-11-24T04:20:06.654Z,3.07
2017-11-24T04:22:41.152Z,3.63
2017-11-24T04:25:15.236Z,2.87
2017-11-24T04:27:49.941Z,3.60
2017-11-24T04:30:23.936Z,3.90
2017-11-24T04:32:57.721Z,3.67
2017-11-24T04:35:31.515Z,2.90
2017-11-24T04:38:05.400Z,4.20
2017-11-24T04:40:39.818Z,3.40
2017-11-24T04:43:14.196Z,3.47
2017-11-24T04:45:47.930Z,3.87
2017-11-24T04:48:22.721Z,3.50
2017-11-24T04:50:56.755Z,3.00
2017-11-24T04:53:30.541Z,2.90
2017-11-24T04:56:05.042Z,3.10
2017-11-24T04:58:39.055Z,3.20
2017-11-24T05:01:13.591Z,3.63
2017-11-24T05:03:47.764Z,3.80
2017-11-24T05:06:21.526Z,3.40
2017-11-24T05:08:55.223Z,3.40
2017-11-24T05:11:29.740Z,3.10
2017-11-24T05:14:03.956Z,3.83
2017-11-24T05:16:38.558Z,3.87
2017-11-24T05:19:12.830Z,3.90
2017-11-24T05:21:47.469Z,3.70
2017-11-24T05:24:22.374Z,4.10
2017-11-24T05:26:56.328Z,4.40
2017-11-24T05:29:30.985Z,4.80
2017-11-24T05:32:05.337Z,3.70
2017-11-24T05:34:39.153Z,3.43
2017-11-24T05:37:14.051Z,3.43
2017-11-24T05:39:48.422Z,3.40
2017-11-24T05:42:22.297Z,3.03
2017-11-24T05:44:56.754Z,2.70
2017-11-24T05:47:30.668Z,3.30
2017-11-24T05:50:04.458Z,3.17
2017-11-24T05:52:38.315Z,4.50
2017-11-24T05:55:12.098Z,3.27
2017-11-24T05:57:45.906Z,4.50
2017-11-24T06:00:19.613Z,3.20
2017-11-24T06:02:54.130Z,5.37
2017-11-24T06:05:28.153Z,4.33
2017-11-24T06:08:02.663Z,5.77
2017-11-24T06:10:36.906Z,6.60
2017-11-24T06:13:11.059Z,2.57
2017-11-24T06:15:45.439Z,2.87
2017-11-24T06:18:19.221Z,2.97
2017-11-24T06:20:53.540Z,2.57
2017-11-24T06:23:27.659Z,4.53
2017-11-24T06:26:02.387Z,2.90
2017-11-24T06:28:36.155Z,3.00
2017-11-24T06:31:11.007Z,2.97
2017-11-24T06:33:44.822Z,3.27
2017-11-24T06:36:19.445Z,3.30
2017-11-24T06:38:53.450Z,3.20
2017-11-24T06:41:27.369Z,3.50
2017-11-24T06:44:01.003Z,5.87
2017-11-24T06:46:35.578Z,3.77
2017-11-24T06:49:09.708Z,4.23
2017-11-24T06:51:43.521Z,4.57
2017-11-24T06:54:17.290Z,4.10
2017-11-24T06:56:52.046Z,6.40
2017-11-24T06:59:26.166Z,4.17
2017-11-24T07:02:00.672Z,3.37
2017-11-24T07:04:34.789Z,3.20
2017-11-24T07:07:08.409Z,3.90
2017-11-24T07:09:42.270Z,3.90
2017-11-24T07:12:16.033Z,2.40
2017-11-24T07:14:50.542Z,4.47
2017-11-24T07:17:24.499Z,5.20
2017-11-24T07:19:59.079Z,2.90
2017-11-24T07:22:33.065Z,5.07
2017-11-24T07:25:07.524Z,3.60
2017-11-24T07:27:41.712Z,7.37
2017-11-24T07:30:16.225Z,10.37
2017-11-24T07:32:51.311Z,5.40
2017-11-24T07:35:25.579Z,3.73
2017-11-24T07:37:59.484Z,4.40
2017-11-24T07:40:34.284Z,4.50
2017-11-24T07:43:08.855Z,4.47
2017-11-24T07:45:43.051Z,4.63
2017-11-24T07:48:17.155Z,4.93
2017-11-24T07:50:50.828Z,5.30
2017-11-24T07:53:24.707Z,4.60
2017-11-24T07:55:58.437Z,5.20
2017-11-24T07:58:32.296Z,5.13
2017-11-24T08:01:06.894Z,4.73
2017-11-24T08:03:40.928Z,3.90
2017-11-24T08:06:14.624Z,3.47
2017-11-24T08:08:49.357Z,4.00
2017-11-24T08:11:23.322Z,4.57
2017-11-24T08:13:57.052Z,3.70
2017-11-24T08:16:30.899Z,4.80
2017-11-24T08:19:05.566Z,3.20
2017-11-24T08:21:39.614Z,4.00
2017-11-24T08:24:13.976Z,3.47
2017-11-24T08:26:48.182Z,4.07
2017-11-24T08:29:21.925Z,3.30
2017-11-24T08:31:56.568Z,3.40
2017-11-24T08:34:30.626Z,3.17
2017-11-24T08:37:04.593Z,5.53
2017-11-24T08:39:39.377Z,3.47
2017-11-24T08:42:13.843Z,2.73
2017-11-24T08:44:47.623Z,3.23
2017-11-24T08:47:26.951Z,2.80
2017-11-24T08:50:00.987Z,3.00
2017-11-24T08:52:35.702Z,2.43
2017-11-24T08:55:10.947Z,3.60
2017-11-24T08:57:45.260Z,2.97
2017-11-24T09:00:19.392Z,2.90
2017-11-24T09:02:53.025Z,2.90
2017-11-24T09:05:26.741Z,11.17
2017-11-24T09:08:00.706Z,2.83
2017-11-24T09:10:34.387Z,3.07
2017-11-24T09:13:08.210Z,2.30
2017-11-24T09:15:42.068Z,3.60
2017-11-24T09:18:15.818Z,3.40
2017-11-24T09:20:49.547Z,3.80
2017-11-24T09:23:23.310Z,3.77
2017-11-24T09:25:57.024Z,3.30
2017-11-24T09:28:30.789Z,3.40
2017-11-24T09:31:04.742Z,3.73
2017-11-24T09:33:38.556Z,3.90
2017-11-24T09:36:13.111Z,3.57
2017-11-24T09:38:46.966Z,3.77
2017-11-24T09:41:20.585Z,3.40
2017-11-24T09:43:54.278Z,3.23
2017-11-24T09:46:27.948Z,4.27
2017-11-24T09:49:03.201Z,3.90
2017-11-24T09:51:37.237Z,4.20
2017-11-24T09:54:11.813Z,3.57
2017-11-24T09:56:45.459Z,5.10
2017-11-24T09:59:20.604Z,3.87
2017-11-24T10:01:54.201Z,3.80
2017-11-24T10:04:28.427Z,3.90
2017-11-24T10:07:02.978Z,4.23
2017-11-24T10:09:36.880Z,3.83
2017-11-24T10:12:10.943Z,3.30
2017-11-24T10:14:44.743Z,6.27
2017-11-24T10:17:18.604Z,3.57
2017-11-24T10:19:52.382Z,4.13
2017-11-24T10:22:42.854Z,4.50
2017-11-24T10:25:18.414Z,4.00
2017-11-24T10:27:52.347Z,4.73
2017-11-24T10:30:26.205Z,5.47
2017-11-24T10:33:01.662Z,7.03
2017-11-24T10:35:36.279Z,4.47
2017-11-24T10:38:10.414Z,3.87
2017-11-24T10:40:44.187Z,4.47
2017-11-24T10:43:18.056Z,4.17
2017-11-24T10:45:51.901Z,5.43
2017-11-24T10:48:25.547Z,4.90
2017-11-24T10:50:59.303Z,4.07
2017-11-24T10:53:32.946Z,2.63
2017-11-24T10:56:06.611Z,3.90
2017-11-24T10:58:40.344Z,2.97
2017-11-24T11:01:13.931Z,3.40
2017-11-24T11:03:47.648Z,2.73
2017-11-24T11:06:22.171Z,4.23
2017-11-24T11:08:56.780Z,2.50
2017-11-24T11:11:31.526Z,9.60
2017-11-24T11:14:05.515Z,3.43
2017-11-24T11:16:39.441Z,5.83
2017-11-24T11:19:14.192Z,2.97
2017-11-24T11:21:48.180Z,3.50
2017-11-24T11:24:21.968Z,4.77
2017-11-24T11:26:55.905Z,3.40
2017-11-24T11:29:29.487Z,5.57
2017-11-24T11:32:03.501Z,3.63
2017-11-24T11:34:37.336Z,3.53
2017-11-24T11:37:11.297Z,2.20
2017-11-24T11:39:45.172Z,3.03
2017-11-24T11:42:19.247Z,1.90
2017-11-24T11:44:54.447Z,2.70
2017-11-24T11:47:29.209Z,3.80
2017-11-24T11:50:03.844Z,4.20
2017-11-24T11:52:38.621Z,1.80
2017-11-24T11:55:12.672Z,1.47
2017-11-24T11:57:46.526Z,1.90
2017-11-24T12:00:21.078Z,2.50
2017-11-24T12:02:54.690Z,3.03
2017-11-24T12:05:28.595Z,3.03
2017-11-24T12:08:02.127Z,3.00
2017-11-24T12:10:36.014Z,3.90
2017-11-24T12:13:10.407Z,6.00
2017-11-24T12:15:44.463Z,4.27
2017-11-24T12:18:18.220Z,3.80
2017-11-24T12:20:52.816Z,6.30
2017-11-24T12:23:26.759Z,5.17
2017-11-24T12:26:01.609Z,42.50
2017-11-24T12:28:35.335Z,3.83
2017-11-24T12:31:09.564Z,5.40
2017-11-24T12:33:44.110Z,2.70
2017-11-24T12:36:18.264Z,2.20
2017-11-24T12:38:51.966Z,2.70
2017-11-24T12:41:25.775Z,2.10
2017-11-24T12:44:00.282Z,2.73
2017-11-24T12:46:34.448Z,2.00
2017-11-24T12:49:08.147Z,2.10
2017-11-24T12:51:42.025Z,2.47
2017-11-24T12:54:15.855Z,2.10
2017-11-24T12:56:50.344Z,2.50
2017-11-24T12:59:24.192Z,2.77
2017-11-24T13:01:58.019Z,2.57
2017-11-24T13:04:32.606Z,11.20
2017-11-24T13:07:06.503Z,2.90
2017-11-24T13:09:40.304Z,2.33
2017-11-24T13:12:13.909Z,2.63
2017-11-24T13:14:47.729Z,2.50
2017-11-24T13:17:21.625Z,2.37
2017-11-24T13:19:55.282Z,3.37
2017-11-24T13:22:28.941Z,4.63
2017-11-24T13:25:02.842Z,3.40
2017-11-24T13:27:36.611Z,3.57
2017-11-24T13:30:10.456Z,3.20
2017-11-24T13:32:44.159Z,3.03
2017-11-24T13:35:18.268Z,3.80
2017-11-24T13:37:51.933Z,4.50
2017-11-24T13:40:26.554Z,3.23
2017-11-24T13:43:01.491Z,4.27
2017-11-24T13:45:35.679Z,3.40
2017-11-24T13:48:09.633Z,3.80
2017-11-24T13:50:43.654Z,4.17
2017-11-24T13:53:17.468Z,5.00
2017-11-24T13:55:51.460Z,5.00
2017-11-24T13:58:26.058Z,5.30
2017-11-24T14:00:59.866Z,3.63
2017-11-24T14:03:33.735Z,3.33
2017-11-24T14:06:07.455Z,3.40
2017-11-24T14:08:41.239Z,4.00
2017-11-24T14:11:14.902Z,3.30
2017-11-24T14:13:48.635Z,3.20
2017-11-24T14:16:22.440Z,7.30
2017-11-24T14:18:57.075Z,8.10
2017-11-24T14:21:30.791Z,4.23
2017-11-24T14:24:04.470Z,4.00
2017-11-24T14:26:38.310Z,4.20
2017-11-24T14:29:12.164Z,3.60
2017-11-24T14:31:45.927Z,3.80
2017-11-24T14:34:20.539Z,4.50
2017-11-24T14:36:54.603Z,3.50
2017-11-24T14:39:28.279Z,4.20
2017-11-24T14:42:02.160Z,4.20
2017-11-24T14:44:35.796Z,4.00
2017-11-24T14:47:09.457Z,4.70
2017-11-24T14:49:43.258Z,3.43
2017-11-24T14:52:17.093Z,4.00
2017-11-24T14:54:51.132Z,3.93
2017-11-24T14:57:25.222Z,10.53
2017-11-24T14:59:59.000Z,5.93
2017-11-24T15:02:33.046Z,6.03
2017-11-24T15:05:06.867Z,4.43
2017-11-24T15:07:40.751Z,5.13
2017-11-24T15:10:14.694Z,5.40
2017-11-24T15:12:49.319Z,4.70
2017-11-24T15:15:23.338Z,4.70
2017-11-24T15:17:57.208Z,4.10
2017-11-24T15:20:31.132Z,4.63
2017-11-24T15:23:06.374Z,4.40
2017-11-24T15:25:40.181Z,5.20
2017-11-24T15:28:14.848Z,5.30
2017-11-24T15:30:48.759Z,5.53
2017-11-24T15:33:22.547Z,5.13
2017-11-24T15:35:56.195Z,5.30
2017-11-24T15:38:29.967Z,5.53
2017-11-24T15:41:04.509Z,6.60
2017-11-24T15:43:39.378Z,7.90
2017-11-24T15:46:13.140Z,5.97
2017-11-24T15:48:46.808Z,6.13
2017-11-24T15:51:21.259Z,5.63
2017-11-24T15:53:55.345Z,6.60
2017-11-24T15:56:29.792Z,6.30
2017-11-24T15:59:03.896Z,7.10
2017-11-24T16:01:38.674Z,7.00
2017-11-24T16:04:13.033Z,7.20
2017-11-24T16:06:47.823Z,6.40
2017-11-24T16:09:22.778Z,6.03
2017-11-24T16:11:56.794Z,6.20
2017-11-24T16:14:30.510Z,6.10
2017-11-24T16:17:04.114Z,6.30
2017-11-24T16:19:38.699Z,6.73
2017-11-24T16:22:12.849Z,5.37
2017-11-24T16:24:46.521Z,4.20
2017-11-24T16:27:21.335Z,4.87
2017-11-24T16:29:55.960Z,5.67
2017-11-24T16:32:30.692Z,5.97
2017-11-24T16:35:04.900Z,6.67
2017-11-24T16:37:38.495Z,5.40
2017-11-24T16:40:12.211Z,6.50
2017-11-24T16:42:45.986Z,7.00
2017-11-24T16:45:19.755Z,7.20
2017-11-24T16:47:53.452Z,7.93
2017-11-24T16:50:27.432Z,6.90
2017-11-24T16:53:01.934Z,6.07
2017-11-24T16:55:36.042Z,7.10
2017-11-24T16:58:10.317Z,6.30
2017-11-24T17:00:44.123Z,6.80
2017-11-24T17:03:17.886Z,7.60
2017-11-24T17:05:51.502Z,6.20
2017-11-24T17:08:25.231Z,7.03
2017-11-24T17:10:59.043Z,8.00
2017-11-24T17:13:33.964Z,8.60
2017-11-24T17:16:08.108Z,8.53
2017-11-24T17:18:41.841Z,8.30
2017-11-24T17:21:15.760Z,9.60
2017-11-24T17:23:50.339Z,8.03
2017-11-24T17:26:24.609Z,8.43
2017-11-24T17:28:58.571Z,8.03
2017-11-24T17:31:33.166Z,9.20
2017-11-24T17:34:07.833Z,9.50
2017-11-24T17:36:42.178Z,10.60
2017-11-24T17:39:16.796Z,11.00
2017-11-24T17:41:51.390Z,11.07
2017-11-24T17:44:26.347Z,9.17
2017-11-24T17:47:00.576Z,9.50
2017-11-24T17:49:34.907Z,10.63
2017-11-24T17:52:08.627Z,10.67
2017-11-24T17:54:43.838Z,11.30
2017-11-24T17:57:18.666Z,15.17
2017-11-24T17:59:53.597Z,10.07
2017-11-24T18:02:28.297Z,21.97
2017-11-24T18:05:02.401Z,25.17
2017-11-24T18:07:36.779Z,12.70
2017-11-24T18:10:11.197Z,12.03
2017-11-24T18:12:45.686Z,11.17
2017-11-24T18:15:20.060Z,11.80
2017-11-24T18:17:53.770Z,12.20
2017-11-24T18:20:28.344Z,13.27
2017-11-24T18:23:02.932Z,14.10
2017-11-24T18:25:37.096Z,15.83
2017-11-24T18:28:10.956Z,14.03
2017-11-24T18:30:44.733Z,13.30
2017-11-24T18:33:18.614Z,17.90
2017-11-24T18:35:52.986Z,15.40
2017-11-24T18:38:27.121Z,14.90
2017-11-24T18:41:01.001Z,18.00
2017-11-24T18:43:35.636Z,19.97
2017-11-24T18:46:09.779Z,16.43
2017-11-24T18:48:43.423Z,14.97
2017-11-24T18:51:17.345Z,15.60
2017-11-24T18:53:51.228Z,38.13
2017-11-24T18:56:25.306Z,23.63
2017-11-24T18:58:58.996Z,16.17
2017-11-24T19:01:32.845Z,19.27
2017-11-24T19:04:07.450Z,20.80
2017-11-24T19:06:41.451Z,17.97
2017-11-24T19:09:15.465Z,16.77
2017-11-24T19:11:49.856Z,16.97
2017-11-24T19:14:24.390Z,17.77
2017-11-24T19:16:58.073Z,19.20
2017-11-24T19:19:32.688Z,21.10
2017-11-24T19:22:07.480Z,18.53
2017-11-24T19:24:42.235Z,22.03
2017-11-24T19:27:16.132Z,19.70
2017-11-24T19:29:50.136Z,19.03
2017-11-24T19:32:23.811Z,19.67
2017-11-24T19:34:57.746Z,17.83
2017-11-24T19:37:31.592Z,18.57
2017-11-24T19:40:05.738Z,18.57
2017-11-24T19:42:40.235Z,19.27
2017-11-24T19:45:14.414Z,17.50
2017-11-24T19:47:49.250Z,21.47
2017-11-24T19:50:23.457Z,21.33
2017-11-24T19:52:57.433Z,17.93
2017-11-24T19:55:32.395Z,21.43
2017-11-24T19:58:06.059Z,18.50
2017-11-24T20:00:39.942Z,19.60
2017-11-24T20:03:13.646Z,21.00
2017-11-24T20:05:47.478Z,18.17
2017-11-24T20:08:21.394Z,19.57
2017-11-24T20:10:55.218Z,18.70
2017-11-24T20:13:29.908Z,18.30
2017-11-24T20:16:04.826Z,18.47
2017-11-24T20:18:38.795Z,47.97
2017-11-24T20:21:12.674Z,18.43
2017-11-24T20:23:46.431Z,18.90
2017-11-24T20:26:20.377Z,17.97
2017-11-24T20:28:53.985Z,18.33
2017-11-24T20:31:27.868Z,25.27
2017-11-24T20:34:01.614Z,19.20
2017-11-24T20:36:35.568Z,18.67
2017-11-24T20:39:09.334Z,20.50
2017-11-24T20:41:44.348Z,18.73
2017-11-24T20:44:19.124Z,19.20
2017-11-24T20:46:53.277Z,18.77
2017-11-24T20:49:27.093Z,20.60
2017-11-24T20:52:01.701Z,18.00
2017-11-24T20:54:36.152Z,18.13
2017-11-24T20:57:10.772Z,18.83
2017-11-24T20:59:44.829Z,18.70
2017-11-24T21:02:18.650Z,17.70
2017-11-24T21:04:52.304Z,19.87
2017-11-24T21:07:26.067Z,18.17
2017-11-24T21:09:59.879Z,18.60
2017-11-24T21:12:33.772Z,19.03
2017-11-24T21:15:08.597Z,17.97
2017-11-24T21:17:42.734Z,17.80
2017-11-24T21:20:17.207Z,19.00
2017-11-24T21:22:51.392Z,18.87
2017-11-24T21:25:25.582Z,17.67
2017-11-24T21:28:00.826Z,18.77
2017-11-24T21:30:35.719Z,18.00
2017-11-24T21:33:09.979Z,17.90
2017-11-24T21:35:44.476Z,18.97
2017-11-24T21:38:18.555Z,19.30
2017-11-24T21:40:52.195Z,17.57
2017-11-24T21:43:25.999Z,23.43
2017-11-24T21:45:59.900Z,18.30
2017-11-24T21:48:33.800Z,17.80
2017-11-24T21:51:07.697Z,19.30
2017-11-24T21:53:42.117Z,19.00
2017-11-24T21:56:16.974Z,18.97
2017-11-24T21:58:51.765Z,19.97
2017-11-24T22:01:25.980Z,19.57
2017-11-24T22:03:59.848Z,19.27
2017-11-24T22:06:33.618Z,19.43
2017-11-24T22:09:07.463Z,20.80
2017-11-24T22:11:41.445Z,18.43
2017-11-24T22:14:15.366Z,18.40
2017-11-24T22:16:50.083Z,20.80
2017-11-24T22:19:24.103Z,21.00
2017-11-24T22:21:58.272Z,17.97
2017-11-24T22:24:32.732Z,20.93
2017-11-24T22:27:06.901Z,21.20
2017-11-24T22:29:41.457Z,18.60
2017-11-24T22:32:15.629Z,18.23
2017-11-24T22:34:49.405Z,19.03
2017-11-24T22:37:23.973Z,19.40
2017-11-24T22:39:58.144Z,20.07
2017-11-24T22:42:32.239Z,18.40
2017-11-24T22:45:06.856Z,18.70
2017-11-24T22:47:40.875Z,17.73
2017-11-24T22:50:14.724Z,18.37
2017-11-24T22:52:48.595Z,18.20
2017-11-24T22:55:22.206Z,17.13
2017-11-24T22:57:56.798Z,17.80
2017-11-24T23:00:30.834Z,16.37
2017-11-24T23:03:04.847Z,17.33
2017-11-24T23:05:38.617Z,18.03
2017-11-24T23:08:13.372Z,16.47
2017-11-24T23:10:47.310Z,16.97
2017-11-24T23:13:21.155Z,16.77
2017-11-24T23:15:55.993Z,17.93
2017-11-24T23:18:30.115Z,17.80
2017-11-24T23:21:04.659Z,17.30
2017-11-24T23:23:38.709Z,16.40
2017-11-24T23:26:12.534Z,17.60
2017-11-24T23:28:46.392Z,18.93
2017-11-24T23:31:20.210Z,17.70
2017-11-24T23:33:54.804Z,17.80
2017-11-24T23:36:28.839Z,18.17
2017-11-24T23:39:02.738Z,17.60
2017-11-24T23:41:37.430Z,17.57
2017-11-24T23:44:11.217Z,16.90
2017-11-24T23:46:45.153Z,17.87
2017-11-24T23:49:19.069Z,16.67
2017-11-24T23:51:54.502Z,16.53
2017-11-24T23:54:28.460Z,16.33
2017-11-24T23:57:03.161Z,17.90
2017-11-24T23:59:38.075Z,16.70
